sensor_id;sensor_type;location;lat;lon;timestamp;P1;durP1;ratioP1;P2;durP2;ratioP2
53034;SDS011;38923;53.236;6.506;2022-08-19T00:01:30;9.52;;;5.22;;
53034;SDS011;38923;53.236;6.506;2022-08-19T00:03:57;7.60;;;4.93;;
53034;SDS011;38923;53.236;6.506;2022-08-19T00:06:24;9.52;;;4.88;;
53034;SDS011;38923;53.236;6.506;2022-08-19T00:08:50;8.27;;;5.43;;
53034;SDS011;38923;53.236;6.506;2022-08-19T00:11:16;8.23;;;4.47;;
53034;SDS011;38923;53.236;6.506;2022-08-19T00:13:42;9.02;;;4.93;;
53034;SDS011;38923;53.236;6.506;2022-08-19T00:16:08;11.00;;;4.50;;
53034;SDS011;38923;53.236;6.506;2022-08-19T00:18:34;10.73;;;5.28;;
53034;SDS011;38923;53.236;6.506;2022-08-19T00:21:00;10.70;;;5.32;;
53034;SDS011;38923;53.236;6.506;2022-08-19T00:23:27;8.32;;;5.70;;
53034;SDS011;38923;53.236;6.506;2022-08-19T00:25:53;8.57;;;5.10;;
53034;SDS011;38923;53.236;6.506;2022-08-19T00:28:18;6.43;;;4.30;;
53034;SDS011;38923;53.236;6.506;2022-08-19T00:30:45;8.68;;;3.97;;
53034;SDS011;38923;53.236;6.506;2022-08-19T00:33:11;4.15;;;3.40;;
53034;SDS011;38923;53.236;6.506;2022-08-19T00:35:38;4.93;;;3.50;;
53034;SDS011;38923;53.236;6.506;2022-08-19T00:38:04;8.23;;;4.80;;
53034;SDS011;38923;53.236;6.506;2022-08-19T00:40:33;6.55;;;4.15;;
53034;SDS011;38923;53.236;6.506;2022-08-19T00:42:59;9.98;;;6.43;;
53034;SDS011;38923;53.236;6.506;2022-08-19T00:45:25;7.95;;;4.70;;
53034;SDS011;38923;53.236;6.506;2022-08-19T00:47:53;6.78;;;4.15;;
53034;SDS011;38923;53.236;6.506;2022-08-19T00:50:19;5.13;;;2.53;;
53034;SDS011;38923;53.236;6.506;2022-08-19T00:52:46;7.63;;;5.63;;
53034;SDS011;38923;53.236;6.506;2022-08-19T00:55:22;3.88;;;2.63;;
53034;SDS011;38923;53.236;6.506;2022-08-19T00:57:58;4.40;;;2.08;;
53034;SDS011;38923;53.236;6.506;2022-08-19T01:00:33;5.97;;;3.55;;
53034;SDS011;38923;53.236;6.506;2022-08-19T01:03:06;8.55;;;6.13;;
53034;SDS011;38923;53.236;6.506;2022-08-19T01:05:34;8.27;;;6.78;;
53034;SDS011;38923;53.236;6.506;2022-08-19T01:08:01;14.65;;;9.57;;
53034;SDS011;38923;53.236;6.506;2022-08-19T01:10:30;16.38;;;9.35;;
53034;SDS011;38923;53.236;6.506;2022-08-19T01:12:59;10.32;;;7.40;;
53034;SDS011;38923;53.236;6.506;2022-08-19T01:15:28;11.80;;;8.00;;
53034;SDS011;38923;53.236;6.506;2022-08-19T01:17:57;10.57;;;7.93;;
53034;SDS011;38923;53.236;6.506;2022-08-19T01:20:26;10.65;;;7.40;;
53034;SDS011;38923;53.236;6.506;2022-08-19T01:22:53;10.93;;;7.88;;
53034;SDS011;38923;53.236;6.506;2022-08-19T01:25:24;13.90;;;8.80;;
53034;SDS011;38923;53.236;6.506;2022-08-19T01:27:53;9.80;;;7.57;;
53034;SDS011;38923;53.236;6.506;2022-08-19T01:30:24;10.00;;;7.22;;
53034;SDS011;38923;53.236;6.506;2022-08-19T01:32:58;10.77;;;7.80;;
53034;SDS011;38923;53.236;6.506;2022-08-19T01:35:25;12.98;;;7.50;;
53034;SDS011;38923;53.236;6.506;2022-08-19T01:37:54;12.15;;;7.13;;
53034;SDS011;38923;53.236;6.506;2022-08-19T01:40:24;10.50;;;7.35;;
53034;SDS011;38923;53.236;6.506;2022-08-19T01:42:56;7.00;;;3.00;;
53034;SDS011;38923;53.236;6.506;2022-08-19T01:45:23;3.67;;;2.38;;
53034;SDS011;38923;53.236;6.506;2022-08-19T01:47:51;10.98;;;6.40;;
53034;SDS011;38923;53.236;6.506;2022-08-19T01:50:17;9.82;;;6.32;;
53034;SDS011;38923;53.236;6.506;2022-08-19T01:52:44;13.50;;;7.65;;
53034;SDS011;38923;53.236;6.506;2022-08-19T01:55:12;12.35;;;7.80;;
53034;SDS011;38923;53.236;6.506;2022-08-19T01:57:46;10.43;;;7.63;;
53034;SDS011;38923;53.236;6.506;2022-08-19T02:00:15;12.30;;;8.20;;
53034;SDS011;38923;53.236;6.506;2022-08-19T02:02:44;10.70;;;7.97;;
53034;SDS011;38923;53.236;6.506;2022-08-19T02:05:10;13.00;;;8.30;;
53034;SDS011;38923;53.236;6.506;2022-08-19T02:07:38;15.65;;;9.05;;
53034;SDS011;38923;53.236;6.506;2022-08-19T02:10:06;13.93;;;9.32;;
53034;SDS011;38923;53.236;6.506;2022-08-19T02:12:34;14.00;;;8.95;;
53034;SDS011;38923;53.236;6.506;2022-08-19T02:15:00;13.02;;;8.82;;
53034;SDS011;38923;53.236;6.506;2022-08-19T02:17:27;16.75;;;9.10;;
53034;SDS011;38923;53.236;6.506;2022-08-19T02:19:54;15.13;;;9.25;;
53034;SDS011;38923;53.236;6.506;2022-08-19T02:22:24;16.92;;;9.35;;
53034;SDS011;38923;53.236;6.506;2022-08-19T02:24:53;12.85;;;9.27;;
53034;SDS011;38923;53.236;6.506;2022-08-19T02:27:20;16.92;;;10.30;;
53034;SDS011;38923;53.236;6.506;2022-08-19T02:29:48;14.20;;;9.65;;
53034;SDS011;38923;53.236;6.506;2022-08-19T02:32:16;16.02;;;9.77;;
53034;SDS011;38923;53.236;6.506;2022-08-19T02:34:43;14.15;;;9.45;;
53034;SDS011;38923;53.236;6.506;2022-08-19T02:37:09;12.30;;;9.65;;
53034;SDS011;38923;53.236;6.506;2022-08-19T02:39:55;12.70;;;9.25;;
53034;SDS011;38923;53.236;6.506;2022-08-19T02:42:20;14.80;;;9.50;;
53034;SDS011;38923;53.236;6.506;2022-08-19T02:44:46;12.93;;;8.93;;
53034;SDS011;38923;53.236;6.506;2022-08-19T02:47:12;15.50;;;9.68;;
53034;SDS011;38923;53.236;6.506;2022-08-19T02:49:39;14.40;;;9.52;;
53034;SDS011;38923;53.236;6.506;2022-08-19T02:52:05;16.33;;;10.05;;
53034;SDS011;38923;53.236;6.506;2022-08-19T02:54:30;13.63;;;9.98;;
53034;SDS011;38923;53.236;6.506;2022-08-19T02:56:56;13.73;;;9.63;;
53034;SDS011;38923;53.236;6.506;2022-08-19T02:59:22;12.70;;;8.70;;
53034;SDS011;38923;53.236;6.506;2022-08-19T03:01:47;15.60;;;8.98;;
53034;SDS011;38923;53.236;6.506;2022-08-19T03:04:14;12.93;;;9.80;;
53034;SDS011;38923;53.236;6.506;2022-08-19T03:06:42;13.70;;;9.50;;
53034;SDS011;38923;53.236;6.506;2022-08-19T03:09:09;14.23;;;9.50;;
53034;SDS011;38923;53.236;6.506;2022-08-19T03:11:35;17.02;;;9.15;;
53034;SDS011;38923;53.236;6.506;2022-08-19T03:14:01;12.23;;;8.48;;
53034;SDS011;38923;53.236;6.506;2022-08-19T03:16:29;14.38;;;9.60;;
53034;SDS011;38923;53.236;6.506;2022-08-19T03:18:57;12.45;;;8.93;;
53034;SDS011;38923;53.236;6.506;2022-08-19T03:21:26;12.07;;;7.85;;
53034;SDS011;38923;53.236;6.506;2022-08-19T03:23:54;14.13;;;8.13;;
53034;SDS011;38923;53.236;6.506;2022-08-19T03:26:20;12.60;;;8.07;;
53034;SDS011;38923;53.236;6.506;2022-08-19T03:28:46;13.32;;;8.50;;
53034;SDS011;38923;53.236;6.506;2022-08-19T03:31:15;14.63;;;8.05;;
53034;SDS011;38923;53.236;6.506;2022-08-19T03:33:42;14.25;;;8.70;;
53034;SDS011;38923;53.236;6.506;2022-08-19T03:36:13;12.30;;;8.05;;
53034;SDS011;38923;53.236;6.506;2022-08-19T03:38:45;14.00;;;8.90;;
53034;SDS011;38923;53.236;6.506;2022-08-19T03:41:14;13.77;;;9.10;;
53034;SDS011;38923;53.236;6.506;2022-08-19T03:43:43;12.38;;;9.18;;
53034;SDS011;38923;53.236;6.506;2022-08-19T03:46:19;18.15;;;10.50;;
53034;SDS011;38923;53.236;6.506;2022-08-19T03:48:55;16.08;;;10.70;;
53034;SDS011;38923;53.236;6.506;2022-08-19T03:51:24;16.48;;;11.77;;
53034;SDS011;38923;53.236;6.506;2022-08-19T03:53:56;17.90;;;11.57;;
53034;SDS011;38923;53.236;6.506;2022-08-19T03:56:24;16.98;;;11.15;;
53034;SDS011;38923;53.236;6.506;2022-08-19T03:58:51;19.13;;;11.05;;
53034;SDS011;38923;53.236;6.506;2022-08-19T04:01:19;18.45;;;12.48;;
53034;SDS011;38923;53.236;6.506;2022-08-19T04:03:48;23.98;;;12.32;;
53034;SDS011;38923;53.236;6.506;2022-08-19T04:09:55;18.45;;;12.13;;
53034;SDS011;38923;53.236;6.506;2022-08-19T04:12:21;19.27;;;12.50;;
53034;SDS011;38923;53.236;6.506;2022-08-19T04:14:47;19.73;;;12.43;;
53034;SDS011;38923;53.236;6.506;2022-08-19T04:17:12;18.65;;;11.20;;
53034;SDS011;38923;53.236;6.506;2022-08-19T04:19:39;18.50;;;11.95;;
53034;SDS011;38923;53.236;6.506;2022-08-19T04:22:06;19.40;;;11.98;;
53034;SDS011;38923;53.236;6.506;2022-08-19T04:24:32;17.30;;;11.82;;
53034;SDS011;38923;53.236;6.506;2022-08-19T04:27:00;16.65;;;12.45;;
53034;SDS011;38923;53.236;6.506;2022-08-19T04:29:28;21.73;;;12.63;;
53034;SDS011;38923;53.236;6.506;2022-08-19T04:31:55;22.25;;;12.43;;
53034;SDS011;38923;53.236;6.506;2022-08-19T04:34:22;19.58;;;11.32;;
53034;SDS011;38923;53.236;6.506;2022-08-19T04:36:51;15.48;;;10.55;;
53034;SDS011;38923;53.236;6.506;2022-08-19T04:39:22;19.60;;;11.65;;
53034;SDS011;38923;53.236;6.506;2022-08-19T04:42:17;17.25;;;11.70;;
53034;SDS011;38923;53.236;6.506;2022-08-19T04:45:02;18.95;;;11.55;;
53034;SDS011;38923;53.236;6.506;2022-08-19T04:47:29;17.15;;;11.65;;
53034;SDS011;38923;53.236;6.506;2022-08-19T04:49:57;19.08;;;11.82;;
53034;SDS011;38923;53.236;6.506;2022-08-19T04:52:23;18.33;;;11.20;;
53034;SDS011;38923;53.236;6.506;2022-08-19T04:54:49;19.77;;;11.52;;
53034;SDS011;38923;53.236;6.506;2022-08-19T04:57:15;19.52;;;11.73;;
53034;SDS011;38923;53.236;6.506;2022-08-19T04:59:40;16.90;;;11.40;;
53034;SDS011;38923;53.236;6.506;2022-08-19T05:02:07;20.77;;;11.88;;
53034;SDS011;38923;53.236;6.506;2022-08-19T05:04:34;18.48;;;11.98;;
53034;SDS011;38923;53.236;6.506;2022-08-19T05:07:03;17.75;;;11.75;;
53034;SDS011;38923;53.236;6.506;2022-08-19T05:09:29;17.48;;;11.57;;
53034;SDS011;38923;53.236;6.506;2022-08-19T05:11:54;18.95;;;11.77;;
53034;SDS011;38923;53.236;6.506;2022-08-19T05:14:20;18.50;;;11.82;;
53034;SDS011;38923;53.236;6.506;2022-08-19T05:16:46;19.42;;;12.02;;
53034;SDS011;38923;53.236;6.506;2022-08-19T05:19:12;16.70;;;12.05;;
53034;SDS011;38923;53.236;6.506;2022-08-19T05:21:57;20.75;;;12.50;;
53034;SDS011;38923;53.236;6.506;2022-08-19T05:24:42;18.00;;;12.45;;
53034;SDS011;38923;53.236;6.506;2022-08-19T05:27:08;20.98;;;12.68;;
53034;SDS011;38923;53.236;6.506;2022-08-19T05:29:34;19.77;;;12.63;;
53034;SDS011;38923;53.236;6.506;2022-08-19T05:32:01;19.83;;;13.10;;
53034;SDS011;38923;53.236;6.506;2022-08-19T05:34:30;20.83;;;13.27;;
53034;SDS011;38923;53.236;6.506;2022-08-19T05:36:58;21.42;;;14.95;;
53034;SDS011;38923;53.236;6.506;2022-08-19T05:39:25;27.65;;;15.75;;
53034;SDS011;38923;53.236;6.506;2022-08-19T05:42:03;22.77;;;13.80;;
53034;SDS011;38923;53.236;6.506;2022-08-19T05:44:34;20.83;;;13.48;;
53034;SDS011;38923;53.236;6.506;2022-08-19T05:47:05;20.20;;;13.00;;
53034;SDS011;38923;53.236;6.506;2022-08-19T05:49:33;20.88;;;13.85;;
53034;SDS011;38923;53.236;6.506;2022-08-19T05:52:04;20.45;;;12.82;;
53034;SDS011;38923;53.236;6.506;2022-08-19T05:54:33;19.92;;;13.60;;
53034;SDS011;38923;53.236;6.506;2022-08-19T05:57:01;21.50;;;12.23;;
53034;SDS011;38923;53.236;6.506;2022-08-19T05:59:27;22.35;;;13.60;;
53034;SDS011;38923;53.236;6.506;2022-08-19T06:01:53;17.95;;;12.38;;
53034;SDS011;38923;53.236;6.506;2022-08-19T06:04:20;24.58;;;13.27;;
53034;SDS011;38923;53.236;6.506;2022-08-19T06:06:47;22.20;;;12.52;;
53034;SDS011;38923;53.236;6.506;2022-08-19T06:09:16;15.27;;;9.85;;
53034;SDS011;38923;53.236;6.506;2022-08-19T06:11:45;18.90;;;11.25;;
53034;SDS011;38923;53.236;6.506;2022-08-19T06:14:15;19.65;;;11.98;;
53034;SDS011;38923;53.236;6.506;2022-08-19T06:16:43;19.08;;;12.00;;
53034;SDS011;38923;53.236;6.506;2022-08-19T06:19:12;18.23;;;11.27;;
53034;SDS011;38923;53.236;6.506;2022-08-19T06:21:41;18.05;;;11.18;;
53034;SDS011;38923;53.236;6.506;2022-08-19T06:24:10;17.08;;;11.13;;
53034;SDS011;38923;53.236;6.506;2022-08-19T06:26:39;16.90;;;11.73;;
53034;SDS011;38923;53.236;6.506;2022-08-19T06:29:06;14.25;;;10.95;;
53034;SDS011;38923;53.236;6.506;2022-08-19T06:31:35;18.65;;;11.60;;
53034;SDS011;38923;53.236;6.506;2022-08-19T06:34:02;17.92;;;11.38;;
53034;SDS011;38923;53.236;6.506;2022-08-19T06:36:34;21.52;;;12.18;;
53034;SDS011;38923;53.236;6.506;2022-08-19T06:39:06;17.40;;;11.10;;
53034;SDS011;38923;53.236;6.506;2022-08-19T06:41:37;17.80;;;11.55;;
53034;SDS011;38923;53.236;6.506;2022-08-19T06:44:05;16.40;;;11.25;;
53034;SDS011;38923;53.236;6.506;2022-08-19T06:46:32;19.35;;;11.93;;
53034;SDS011;38923;53.236;6.506;2022-08-19T06:48:58;15.98;;;11.00;;
53034;SDS011;38923;53.236;6.506;2022-08-19T06:51:24;18.67;;;11.93;;
53034;SDS011;38923;53.236;6.506;2022-08-19T06:53:51;15.88;;;10.55;;
53034;SDS011;38923;53.236;6.506;2022-08-19T06:56:20;19.35;;;12.23;;
53034;SDS011;38923;53.236;6.506;2022-08-19T06:58:48;16.75;;;10.35;;
53034;SDS011;38923;53.236;6.506;2022-08-19T07:01:17;15.35;;;10.50;;
53034;SDS011;38923;53.236;6.506;2022-08-19T07:03:44;17.13;;;11.65;;
53034;SDS011;38923;53.236;6.506;2022-08-19T07:06:12;15.10;;;11.63;;
53034;SDS011;38923;53.236;6.506;2022-08-19T07:08:42;15.82;;;11.25;;
53034;SDS011;38923;53.236;6.506;2022-08-19T07:11:10;16.70;;;11.63;;
53034;SDS011;38923;53.236;6.506;2022-08-19T07:13:38;19.33;;;11.15;;
53034;SDS011;38923;53.236;6.506;2022-08-19T07:18:35;18.65;;;12.20;;
53034;SDS011;38923;53.236;6.506;2022-08-19T07:21:05;16.90;;;10.68;;
53034;SDS011;38923;53.236;6.506;2022-08-19T07:23:32;15.55;;;10.85;;
53034;SDS011;38923;53.236;6.506;2022-08-19T07:26:03;17.30;;;11.35;;
53034;SDS011;38923;53.236;6.506;2022-08-19T07:28:34;16.75;;;11.23;;
53034;SDS011;38923;53.236;6.506;2022-08-19T07:31:04;17.42;;;12.07;;
53034;SDS011;38923;53.236;6.506;2022-08-19T07:33:31;15.48;;;11.18;;
53034;SDS011;38923;53.236;6.506;2022-08-19T07:35:57;16.65;;;11.25;;
53034;SDS011;38923;53.236;6.506;2022-08-19T07:38:24;15.88;;;11.77;;
53034;SDS011;38923;53.236;6.506;2022-08-19T07:40:50;17.00;;;12.38;;
53034;SDS011;38923;53.236;6.506;2022-08-19T07:43:16;18.83;;;12.82;;
53034;SDS011;38923;53.236;6.506;2022-08-19T07:45:48;17.38;;;11.80;;
53034;SDS011;38923;53.236;6.506;2022-08-19T07:48:13;18.23;;;12.20;;
53034;SDS011;38923;53.236;6.506;2022-08-19T07:50:39;18.67;;;11.90;;
53034;SDS011;38923;53.236;6.506;2022-08-19T07:53:05;19.88;;;12.75;;
53034;SDS011;38923;53.236;6.506;2022-08-19T07:55:31;15.98;;;12.13;;
53034;SDS011;38923;53.236;6.506;2022-08-19T07:57:57;16.85;;;12.00;;
53034;SDS011;38923;53.236;6.506;2022-08-19T08:00:23;15.60;;;12.00;;
53034;SDS011;38923;53.236;6.506;2022-08-19T08:02:48;16.10;;;11.20;;
53034;SDS011;38923;53.236;6.506;2022-08-19T08:05:14;16.17;;;11.48;;
53034;SDS011;38923;53.236;6.506;2022-08-19T08:07:58;19.10;;;12.30;;
53034;SDS011;38923;53.236;6.506;2022-08-19T08:10:42;18.00;;;12.27;;
53034;SDS011;38923;53.236;6.506;2022-08-19T08:13:08;16.27;;;12.13;;
53034;SDS011;38923;53.236;6.506;2022-08-19T08:15:34;18.30;;;12.25;;
53034;SDS011;38923;53.236;6.506;2022-08-19T08:18:02;17.60;;;13.18;;
53034;SDS011;38923;53.236;6.506;2022-08-19T08:20:28;16.75;;;11.85;;
53034;SDS011;38923;53.236;6.506;2022-08-19T08:22:54;16.38;;;12.30;;
53034;SDS011;38923;53.236;6.506;2022-08-19T08:25:38;16.25;;;12.15;;
53034;SDS011;38923;53.236;6.506;2022-08-19T08:28:04;13.13;;;10.18;;
53034;SDS011;38923;53.236;6.506;2022-08-19T08:30:30;14.05;;;10.63;;
53034;SDS011;38923;53.236;6.506;2022-08-19T08:32:57;17.27;;;11.50;;
53034;SDS011;38923;53.236;6.506;2022-08-19T08:35:23;16.05;;;11.77;;
53034;SDS011;38923;53.236;6.506;2022-08-19T08:37:51;17.35;;;13.05;;
53034;SDS011;38923;53.236;6.506;2022-08-19T08:40:20;19.77;;;13.85;;
53034;SDS011;38923;53.236;6.506;2022-08-19T08:45:53;15.77;;;11.63;;
53034;SDS011;38923;53.236;6.506;2022-08-19T08:51:15;15.65;;;11.75;;
53034;SDS011;38923;53.236;6.506;2022-08-19T08:53:49;16.05;;;11.55;;
53034;SDS011;38923;53.236;6.506;2022-08-19T08:56:16;21.52;;;13.60;;
53034;SDS011;38923;53.236;6.506;2022-08-19T08:58:47;20.05;;;14.13;;
53034;SDS011;38923;53.236;6.506;2022-08-19T09:01:19;19.13;;;13.15;;
53034;SDS011;38923;53.236;6.506;2022-08-19T09:03:45;19.77;;;13.85;;
53034;SDS011;38923;53.236;6.506;2022-08-19T09:14:09;18.25;;;13.48;;
53034;SDS011;38923;53.236;6.506;2022-08-19T09:16:37;17.70;;;13.75;;
53034;SDS011;38923;53.236;6.506;2022-08-19T09:19:06;16.83;;;13.75;;
53034;SDS011;38923;53.236;6.506;2022-08-19T09:21:32;16.92;;;12.85;;
53034;SDS011;38923;53.236;6.506;2022-08-19T09:23:59;17.23;;;13.30;;
53034;SDS011;38923;53.236;6.506;2022-08-19T09:26:26;24.90;;;14.52;;
53034;SDS011;38923;53.236;6.506;2022-08-19T09:28:52;17.23;;;12.10;;
53034;SDS011;38923;53.236;6.506;2022-08-19T09:31:20;14.88;;;12.52;;
53034;SDS011;38923;53.236;6.506;2022-08-19T09:33:49;15.45;;;12.20;;
53034;SDS011;38923;53.236;6.506;2022-08-19T09:36:16;18.30;;;11.90;;
53034;SDS011;38923;53.236;6.506;2022-08-19T09:38:44;18.63;;;14.02;;
53034;SDS011;38923;53.236;6.506;2022-08-19T09:41:15;17.95;;;13.48;;
53034;SDS011;38923;53.236;6.506;2022-08-19T09:43:44;17.10;;;12.38;;
53034;SDS011;38923;53.236;6.506;2022-08-19T09:46:12;18.73;;;14.18;;
53034;SDS011;38923;53.236;6.506;2022-08-19T09:48:39;17.45;;;14.15;;
53034;SDS011;38923;53.236;6.506;2022-08-19T09:51:10;16.60;;;14.65;;
53034;SDS011;38923;53.236;6.506;2022-08-19T09:53:38;19.92;;;15.95;;
53034;SDS011;38923;53.236;6.506;2022-08-19T09:56:04;17.45;;;14.40;;
53034;SDS011;38923;53.236;6.506;2022-08-19T09:58:31;15.88;;;13.35;;
53034;SDS011;38923;53.236;6.506;2022-08-19T10:00:58;20.55;;;14.55;;
53034;SDS011;38923;53.236;6.506;2022-08-19T10:03:25;18.27;;;13.48;;
53034;SDS011;38923;53.236;6.506;2022-08-19T10:05:52;17.48;;;12.25;;
53034;SDS011;38923;53.236;6.506;2022-08-19T10:08:20;18.63;;;13.88;;
53034;SDS011;38923;53.236;6.506;2022-08-19T10:10:50;15.75;;;11.90;;
53034;SDS011;38923;53.236;6.506;2022-08-19T10:13:17;15.30;;;12.30;;
53034;SDS011;38923;53.236;6.506;2022-08-19T10:15:50;16.08;;;11.82;;
53034;SDS011;38923;53.236;6.506;2022-08-19T10:18:17;17.67;;;14.20;;
53034;SDS011;38923;53.236;6.506;2022-08-19T10:20:45;16.63;;;13.55;;
53034;SDS011;38923;53.236;6.506;2022-08-19T10:23:12;14.48;;;12.63;;
53034;SDS011;38923;53.236;6.506;2022-08-19T10:25:38;18.55;;;13.95;;
53034;SDS011;38923;53.236;6.506;2022-08-19T10:28:04;15.90;;;11.98;;
53034;SDS011;38923;53.236;6.506;2022-08-19T10:30:33;17.17;;;13.43;;
53034;SDS011;38923;53.236;6.506;2022-08-19T10:33:00;18.45;;;13.70;;
53034;SDS011;38923;53.236;6.506;2022-08-19T10:35:26;15.45;;;12.50;;
53034;SDS011;38923;53.236;6.506;2022-08-19T10:37:53;20.63;;;15.23;;
53034;SDS011;38923;53.236;6.506;2022-08-19T10:40:19;19.08;;;14.07;;
53034;SDS011;38923;53.236;6.506;2022-08-19T10:42:45;19.63;;;14.75;;
53034;SDS011;38923;53.236;6.506;2022-08-19T10:45:10;22.02;;;14.43;;
53034;SDS011;38923;53.236;6.506;2022-08-19T10:47:36;15.95;;;13.25;;
53034;SDS011;38923;53.236;6.506;2022-08-19T10:50:02;18.55;;;12.95;;
53034;SDS011;38923;53.236;6.506;2022-08-19T10:52:48;22.65;;;13.88;;
53034;SDS011;38923;53.236;6.506;2022-08-19T10:55:15;18.05;;;15.00;;
53034;SDS011;38923;53.236;6.506;2022-08-19T10:58:00;17.08;;;14.23;;
53034;SDS011;38923;53.236;6.506;2022-08-19T11:00:26;19.83;;;15.35;;
53034;SDS011;38923;53.236;6.506;2022-08-19T11:02:52;17.42;;;13.93;;
53034;SDS011;38923;53.236;6.506;2022-08-19T11:05:18;19.17;;;14.43;;
53034;SDS011;38923;53.236;6.506;2022-08-19T11:07:44;18.48;;;14.13;;
53034;SDS011;38923;53.236;6.506;2022-08-19T11:10:11;16.17;;;12.48;;
53034;SDS011;38923;53.236;6.506;2022-08-19T11:12:39;18.35;;;13.77;;
53034;SDS011;38923;53.236;6.506;2022-08-19T11:15:06;13.48;;;11.02;;
53034;SDS011;38923;53.236;6.506;2022-08-19T11:17:34;16.63;;;13.70;;
53034;SDS011;38923;53.236;6.506;2022-08-19T11:20:01;14.60;;;12.20;;
53034;SDS011;38923;53.236;6.506;2022-08-19T11:22:29;14.50;;;11.85;;
53034;SDS011;38923;53.236;6.506;2022-08-19T11:24:55;17.75;;;13.93;;
53034;SDS011;38923;53.236;6.506;2022-08-19T11:27:21;18.55;;;16.25;;
53034;SDS011;38923;53.236;6.506;2022-08-19T11:29:47;21.13;;;16.73;;
53034;SDS011;38923;53.236;6.506;2022-08-19T11:32:12;18.95;;;16.17;;
53034;SDS011;38923;53.236;6.506;2022-08-19T11:34:38;21.13;;;15.95;;
53034;SDS011;38923;53.236;6.506;2022-08-19T11:37:05;16.80;;;14.82;;
53034;SDS011;38923;53.236;6.506;2022-08-19T11:39:31;21.75;;;15.50;;
53034;SDS011;38923;53.236;6.506;2022-08-19T11:41:58;17.67;;;14.85;;
53034;SDS011;38923;53.236;6.506;2022-08-19T11:44:25;20.42;;;16.75;;
53034;SDS011;38923;53.236;6.506;2022-08-19T11:46:51;19.67;;;16.45;;
53034;SDS011;38923;53.236;6.506;2022-08-19T11:49:18;19.15;;;15.82;;
53034;SDS011;38923;53.236;6.506;2022-08-19T11:51:45;17.88;;;14.30;;
53034;SDS011;38923;53.236;6.506;2022-08-19T11:54:11;19.23;;;15.00;;
53034;SDS011;38923;53.236;6.506;2022-08-19T11:56:39;16.75;;;14.63;;
53034;SDS011;38923;53.236;6.506;2022-08-19T11:59:05;16.00;;;14.13;;
53034;SDS011;38923;53.236;6.506;2022-08-19T12:01:32;18.80;;;15.35;;
53034;SDS011;38923;53.236;6.506;2022-08-19T12:03:59;18.67;;;14.73;;
53034;SDS011;38923;53.236;6.506;2022-08-19T12:06:26;19.40;;;16.23;;
53034;SDS011;38923;53.236;6.506;2022-08-19T12:08:57;21.13;;;16.05;;
53034;SDS011;38923;53.236;6.506;2022-08-19T12:11:25;16.67;;;13.75;;
53034;SDS011;38923;53.236;6.506;2022-08-19T12:13:51;15.88;;;13.73;;
53034;SDS011;38923;53.236;6.506;2022-08-19T12:16:21;15.95;;;13.40;;
53034;SDS011;38923;53.236;6.506;2022-08-19T12:18:49;14.35;;;11.27;;
53034;SDS011;38923;53.236;6.506;2022-08-19T12:21:17;16.65;;;12.88;;
53034;SDS011;38923;53.236;6.506;2022-08-19T12:23:48;14.40;;;12.00;;
53034;SDS011;38923;53.236;6.506;2022-08-19T12:26:15;13.13;;;10.63;;
53034;SDS011;38923;53.236;6.506;2022-08-19T12:28:42;14.55;;;12.15;;
53034;SDS011;38923;53.236;6.506;2022-08-19T12:31:08;16.40;;;12.77;;
53034;SDS011;38923;53.236;6.506;2022-08-19T12:33:37;14.48;;;11.25;;
53034;SDS011;38923;53.236;6.506;2022-08-19T12:36:04;13.27;;;10.55;;
53034;SDS011;38923;53.236;6.506;2022-08-19T12:38:32;14.43;;;11.02;;
53034;SDS011;38923;53.236;6.506;2022-08-19T12:40:59;12.30;;;9.90;;
53034;SDS011;38923;53.236;6.506;2022-08-19T12:43:25;15.38;;;11.07;;
53034;SDS011;38923;53.236;6.506;2022-08-19T12:45:52;15.32;;;10.77;;
53034;SDS011;38923;53.236;6.506;2022-08-19T12:48:17;13.55;;;10.07;;
53034;SDS011;38923;53.236;6.506;2022-08-19T12:50:44;17.95;;;11.50;;
53034;SDS011;38923;53.236;6.506;2022-08-19T12:53:10;15.35;;;12.73;;
53034;SDS011;38923;53.236;6.506;2022-08-19T12:55:37;17.25;;;13.10;;
53034;SDS011;38923;53.236;6.506;2022-08-19T12:58:03;17.17;;;13.90;;
53034;SDS011;38923;53.236;6.506;2022-08-19T13:00:29;13.77;;;11.63;;
53034;SDS011;38923;53.236;6.506;2022-08-19T13:02:55;18.25;;;13.32;;
53034;SDS011;38923;53.236;6.506;2022-08-19T13:05:22;18.75;;;12.95;;
53034;SDS011;38923;53.236;6.506;2022-08-19T13:07:49;17.42;;;13.13;;
53034;SDS011;38923;53.236;6.506;2022-08-19T13:10:17;16.63;;;13.35;;
53034;SDS011;38923;53.236;6.506;2022-08-19T13:12:45;22.63;;;14.18;;
53034;SDS011;38923;53.236;6.506;2022-08-19T13:15:12;16.75;;;13.13;;
53034;SDS011;38923;53.236;6.506;2022-08-19T13:17:39;19.40;;;14.27;;
53034;SDS011;38923;53.236;6.506;2022-08-19T13:20:07;18.65;;;13.38;;
53034;SDS011;38923;53.236;6.506;2022-08-19T13:22:35;17.45;;;11.75;;
53034;SDS011;38923;53.236;6.506;2022-08-19T13:25:02;18.67;;;11.43;;
53034;SDS011;38923;53.236;6.506;2022-08-19T13:27:30;18.00;;;11.82;;
53034;SDS011;38923;53.236;6.506;2022-08-19T13:29:56;14.95;;;10.55;;
53034;SDS011;38923;53.236;6.506;2022-08-19T13:32:40;17.48;;;11.30;;
53034;SDS011;38923;53.236;6.506;2022-08-19T13:35:24;14.93;;;11.57;;
53034;SDS011;38923;53.236;6.506;2022-08-19T13:37:50;18.67;;;11.40;;
53034;SDS011;38923;53.236;6.506;2022-08-19T13:40:20;19.92;;;12.80;;
53034;SDS011;38923;53.236;6.506;2022-08-19T13:42:49;20.33;;;13.88;;
53034;SDS011;38923;53.236;6.506;2022-08-19T13:45:18;17.27;;;12.98;;
53034;SDS011;38923;53.236;6.506;2022-08-19T13:47:47;17.77;;;11.80;;
53034;SDS011;38923;53.236;6.506;2022-08-19T13:50:22;17.42;;;10.60;;
53034;SDS011;38923;53.236;6.506;2022-08-19T13:52:51;12.82;;;8.98;;
53034;SDS011;38923;53.236;6.506;2022-08-19T13:55:18;9.80;;;7.72;;
53034;SDS011;38923;53.236;6.506;2022-08-19T13:57:44;9.70;;;7.45;;
53034;SDS011;38923;53.236;6.506;2022-08-19T14:00:15;10.30;;;7.85;;
53034;SDS011;38923;53.236;6.506;2022-08-19T14:02:45;11.88;;;7.07;;
53034;SDS011;38923;53.236;6.506;2022-08-19T14:05:13;7.90;;;6.63;;
53034;SDS011;38923;53.236;6.506;2022-08-19T14:07:41;8.98;;;7.97;;
53034;SDS011;38923;53.236;6.506;2022-08-19T14:10:08;10.20;;;7.45;;
53034;SDS011;38923;53.236;6.506;2022-08-19T14:12:35;13.55;;;8.38;;
53034;SDS011;38923;53.236;6.506;2022-08-19T14:15:02;15.07;;;11.25;;
53034;SDS011;38923;53.236;6.506;2022-08-19T14:17:28;15.38;;;11.75;;
53034;SDS011;38923;53.236;6.506;2022-08-19T14:19:58;17.73;;;11.32;;
53034;SDS011;38923;53.236;6.506;2022-08-19T14:22:32;18.50;;;12.32;;
53034;SDS011;38923;53.236;6.506;2022-08-19T14:24:58;19.55;;;12.88;;
53034;SDS011;38923;53.236;6.506;2022-08-19T14:27:24;21.63;;;12.70;;
53034;SDS011;38923;53.236;6.506;2022-08-19T14:29:50;21.27;;;14.80;;
53034;SDS011;38923;53.236;6.506;2022-08-19T14:32:17;17.45;;;12.73;;
53034;SDS011;38923;53.236;6.506;2022-08-19T14:34:43;18.75;;;12.25;;
53034;SDS011;38923;53.236;6.506;2022-08-19T14:37:10;17.85;;;12.48;;
53034;SDS011;38923;53.236;6.506;2022-08-19T14:39:39;18.67;;;13.15;;
53034;SDS011;38923;53.236;6.506;2022-08-19T14:42:10;18.83;;;11.93;;
53034;SDS011;38923;53.236;6.506;2022-08-19T14:44:36;21.20;;;13.13;;
53034;SDS011;38923;53.236;6.506;2022-08-19T14:47:03;19.00;;;14.38;;
53034;SDS011;38923;53.236;6.506;2022-08-19T14:49:29;24.35;;;13.10;;
53034;SDS011;38923;53.236;6.506;2022-08-19T14:51:54;18.08;;;12.52;;